sensor_id;sensor_type;location;lat;lon;timestamp;P1;durP1;ratioP1;P2;durP2;ratioP2
48963;SDS011;34776;48.180;16.420;2023-04-19T00:00:16;11.80;;;9.93;;
48963;SDS011;34776;48.180;16.420;2023-04-19T00:02:42;13.55;;;9.80;;
48963;SDS011;34776;48.180;16.420;2023-04-19T00:05:08;11.90;;;10.65;;
48963;SDS011;34776;48.180;16.420;2023-04-19T00:07:34;15.95;;;10.57;;
48963;SDS011;34776;48.180;16.420;2023-04-19T00:09:59;12.52;;;10.88;;
48963;SDS011;34776;48.180;16.420;2023-04-19T00:12:24;11.38;;;10.18;;
48963;SDS011;34776;48.180;16.420;2023-04-19T00:14:50;11.93;;;10.73;;
48963;SDS011;34776;48.180;16.420;2023-04-19T00:17:15;13.70;;;11.55;;
48963;SDS011;34776;48.180;16.420;2023-04-19T00:19:41;12.38;;;11.00;;
48963;SDS011;34776;48.180;16.420;2023-04-19T00:22:07;15.98;;;11.05;;
48963;SDS011;34776;48.180;16.420;2023-04-19T00:24:32;11.77;;;10.52;;
48963;SDS011;34776;48.180;16.420;2023-04-19T00:26:57;11.88;;;9.73;;
48963;SDS011;34776;48.180;16.420;2023-04-19T00:29:24;11.63;;;10.38;;
48963;SDS011;34776;48.180;16.420;2023-04-19T00:31:49;13.02;;;11.00;;
48963;SDS011;34776;48.180;16.420;2023-04-19T00:34:16;11.82;;;10.25;;
48963;SDS011;34776;48.180;16.420;2023-04-19T00:36:42;13.05;;;11.25;;
48963;SDS011;34776;48.180;16.420;2023-04-19T00:39:07;11.57;;;10.40;;
48963;SDS011;34776;48.180;16.420;2023-04-19T00:41:32;11.80;;;10.50;;
48963;SDS011;34776;48.180;16.420;2023-04-19T00:43:58;13.98;;;11.25;;
48963;SDS011;34776;48.180;16.420;2023-04-19T00:46:23;12.20;;;10.88;;
48963;SDS011;34776;48.180;16.420;2023-04-19T00:48:49;13.65;;;10.60;;
48963;SDS011;34776;48.180;16.420;2023-04-19T00:51:15;11.90;;;10.65;;
48963;SDS011;34776;48.180;16.420;2023-04-19T00:53:41;16.00;;;9.98;;
48963;SDS011;34776;48.180;16.420;2023-04-19T00:56:07;16.25;;;10.65;;
48963;SDS011;34776;48.180;16.420;2023-04-19T00:58:34;14.15;;;10.65;;
48963;SDS011;34776;48.180;16.420;2023-04-19T01:01:02;14.48;;;10.55;;
48963;SDS011;34776;48.180;16.420;2023-04-19T01:03:28;14.07;;;11.20;;
48963;SDS011;34776;48.180;16.420;2023-04-19T01:05:54;14.93;;;11.65;;
48963;SDS011;34776;48.180;16.420;2023-04-19T01:08:21;13.90;;;11.80;;
48963;SDS011;34776;48.180;16.420;2023-04-19T01:10:46;13.35;;;11.95;;
48963;SDS011;34776;48.180;16.420;2023-04-19T01:13:11;14.07;;;11.88;;
48963;SDS011;34776;48.180;16.420;2023-04-19T01:15:37;13.75;;;11.85;;
48963;SDS011;34776;48.180;16.420;2023-04-19T01:18:02;13.52;;;11.50;;
48963;SDS011;34776;48.180;16.420;2023-04-19T01:20:27;15.60;;;10.95;;
48963;SDS011;34776;48.180;16.420;2023-04-19T01:22:53;15.98;;;11.93;;
48963;SDS011;34776;48.180;16.420;2023-04-19T01:25:18;16.40;;;12.65;;
48963;SDS011;34776;48.180;16.420;2023-04-19T01:27:44;14.07;;;11.80;;
48963;SDS011;34776;48.180;16.420;2023-04-19T01:30:09;15.95;;;12.93;;
48963;SDS011;34776;48.180;16.420;2023-04-19T01:32:35;15.65;;;11.95;;
48963;SDS011;34776;48.180;16.420;2023-04-19T01:35:01;15.35;;;11.82;;
48963;SDS011;34776;48.180;16.420;2023-04-19T01:37:26;17.95;;;14.45;;
48963;SDS011;34776;48.180;16.420;2023-04-19T01:39:51;14.88;;;12.70;;
48963;SDS011;34776;48.180;16.420;2023-04-19T01:42:17;17.30;;;13.85;;
48963;SDS011;34776;48.180;16.420;2023-04-19T01:44:42;14.88;;;11.82;;
48963;SDS011;34776;48.180;16.420;2023-04-19T01:47:07;18.35;;;12.43;;
48963;SDS011;34776;48.180;16.420;2023-04-19T01:49:33;15.73;;;12.95;;
48963;SDS011;34776;48.180;16.420;2023-04-19T01:51:58;17.40;;;14.73;;
48963;SDS011;34776;48.180;16.420;2023-04-19T01:54:23;18.15;;;14.25;;
48963;SDS011;34776;48.180;16.420;2023-04-19T01:56:49;16.02;;;12.55;;
48963;SDS011;34776;48.180;16.420;2023-04-19T01:59:14;16.83;;;13.90;;
48963;SDS011;34776;48.180;16.420;2023-04-19T02:01:40;17.33;;;13.88;;
48963;SDS011;34776;48.180;16.420;2023-04-19T02:04:05;14.70;;;13.07;;
48963;SDS011;34776;48.180;16.420;2023-04-19T02:06:31;15.75;;;13.80;;
48963;SDS011;34776;48.180;16.420;2023-04-19T02:08:57;17.60;;;12.77;;
48963;SDS011;34776;48.180;16.420;2023-04-19T02:11:22;17.88;;;13.82;;
48963;SDS011;34776;48.180;16.420;2023-04-19T02:13:48;15.57;;;13.48;;
48963;SDS011;34776;48.180;16.420;2023-04-19T02:16:13;21.40;;;14.55;;
48963;SDS011;34776;48.180;16.420;2023-04-19T02:18:38;15.98;;;13.63;;
48963;SDS011;34776;48.180;16.420;2023-04-19T02:21:04;19.48;;;14.52;;
48963;SDS011;34776;48.180;16.420;2023-04-19T02:23:30;16.98;;;13.10;;
48963;SDS011;34776;48.180;16.420;2023-04-19T02:25:56;15.68;;;13.85;;
48963;SDS011;34776;48.180;16.420;2023-04-19T02:28:22;20.13;;;15.38;;
48963;SDS011;34776;48.180;16.420;2023-04-19T02:30:47;16.42;;;14.05;;
48963;SDS011;34776;48.180;16.420;2023-04-19T02:33:13;18.02;;;15.02;;
48963;SDS011;34776;48.180;16.420;2023-04-19T02:35:39;15.48;;;13.60;;
48963;SDS011;34776;48.180;16.420;2023-04-19T02:38:04;16.40;;;13.95;;
48963;SDS011;34776;48.180;16.420;2023-04-19T02:40:30;16.33;;;13.82;;
48963;SDS011;34776;48.180;16.420;2023-04-19T02:42:55;17.67;;;13.50;;
48963;SDS011;34776;48.180;16.420;2023-04-19T02:45:21;19.40;;;14.52;;
48963;SDS011;34776;48.180;16.420;2023-04-19T02:47:46;14.80;;;13.10;;
48963;SDS011;34776;48.180;16.420;2023-04-19T02:50:12;17.05;;;14.35;;
48963;SDS011;34776;48.180;16.420;2023-04-19T02:52:39;18.30;;;13.90;;
48963;SDS011;34776;48.180;16.420;2023-04-19T02:55:05;18.65;;;14.68;;
48963;SDS011;34776;48.180;16.420;2023-04-19T02:57:30;17.13;;;14.95;;
48963;SDS011;34776;48.180;16.420;2023-04-19T02:59:56;16.40;;;14.20;;
48963;SDS011;34776;48.180;16.420;2023-04-19T03:02:22;17.73;;;14.60;;
48963;SDS011;34776;48.180;16.420;2023-04-19T03:04:48;18.50;;;14.13;;
48963;SDS011;34776;48.180;16.420;2023-04-19T03:07:13;17.45;;;14.43;;
48963;SDS011;34776;48.180;16.420;2023-04-19T03:09:39;16.63;;;14.85;;
48963;SDS011;34776;48.180;16.420;2023-04-19T03:12:05;18.08;;;15.82;;
48963;SDS011;34776;48.180;16.420;2023-04-19T03:14:31;17.50;;;15.07;;
48963;SDS011;34776;48.180;16.420;2023-04-19T03:17:00;16.90;;;15.05;;
48963;SDS011;34776;48.180;16.420;2023-04-19T03:19:27;20.50;;;16.38;;
48963;SDS011;34776;48.180;16.420;2023-04-19T03:21:53;19.70;;;15.45;;
48963;SDS011;34776;48.180;16.420;2023-04-19T03:24:18;17.23;;;13.43;;
48963;SDS011;34776;48.180;16.420;2023-04-19T03:26:44;20.00;;;16.08;;
48963;SDS011;34776;48.180;16.420;2023-04-19T03:29:09;18.80;;;15.52;;
48963;SDS011;34776;48.180;16.420;2023-04-19T03:31:35;21.40;;;16.17;;
48963;SDS011;34776;48.180;16.420;2023-04-19T03:34:01;21.42;;;15.15;;
48963;SDS011;34776;48.180;16.420;2023-04-19T03:36:26;18.13;;;15.30;;
48963;SDS011;34776;48.180;16.420;2023-04-19T03:38:51;18.92;;;14.77;;
48963;SDS011;34776;48.180;16.420;2023-04-19T03:41:17;19.98;;;16.77;;
48963;SDS011;34776;48.180;16.420;2023-04-19T03:43:50;20.08;;;16.35;;
48963;SDS011;34776;48.180;16.420;2023-04-19T03:46:15;18.58;;;15.70;;
48963;SDS011;34776;48.180;16.420;2023-04-19T03:48:40;24.27;;;17.85;;
48963;SDS011;34776;48.180;16.420;2023-04-19T03:51:06;19.77;;;16.27;;
48963;SDS011;34776;48.180;16.420;2023-04-19T03:53:31;20.05;;;16.92;;
48963;SDS011;34776;48.180;16.420;2023-04-19T03:55:57;22.40;;;18.08;;
48963;SDS011;34776;48.180;16.420;2023-04-19T03:58:22;21.35;;;18.02;;
48963;SDS011;34776;48.180;16.420;2023-04-19T04:00:47;19.85;;;17.73;;
48963;SDS011;34776;48.180;16.420;2023-04-19T04:03:13;24.23;;;20.50;;
48963;SDS011;34776;48.180;16.420;2023-04-19T04:05:38;28.00;;;21.58;;
48963;SDS011;34776;48.180;16.420;2023-04-19T04:08:04;25.02;;;20.73;;
48963;SDS011;34776;48.180;16.420;2023-04-19T04:10:29;23.48;;;19.15;;
48963;SDS011;34776;48.180;16.420;2023-04-19T04:12:55;25.75;;;19.52;;
48963;SDS011;34776;48.180;16.420;2023-04-19T04:15:20;31.05;;;26.65;;
48963;SDS011;34776;48.180;16.420;2023-04-19T04:17:45;27.13;;;22.73;;
48963;SDS011;34776;48.180;16.420;2023-04-19T04:20:11;21.88;;;18.58;;
48963;SDS011;34776;48.180;16.420;2023-04-19T04:22:43;23.02;;;19.45;;
48963;SDS011;34776;48.180;16.420;2023-04-19T04:25:12;20.47;;;17.80;;
48963;SDS011;34776;48.180;16.420;2023-04-19T04:27:40;24.35;;;20.42;;
48963;SDS011;34776;48.180;16.420;2023-04-19T04:30:06;25.17;;;20.35;;
48963;SDS011;34776;48.180;16.420;2023-04-19T04:32:33;20.67;;;18.00;;
48963;SDS011;34776;48.180;16.420;2023-04-19T04:35:03;24.30;;;21.20;;
48963;SDS011;34776;48.180;16.420;2023-04-19T04:37:35;27.98;;;22.08;;
48963;SDS011;34776;48.180;16.420;2023-04-19T04:40:01;29.02;;;25.05;;
48963;SDS011;34776;48.180;16.420;2023-04-19T04:42:30;26.02;;;20.48;;
48963;SDS011;34776;48.180;16.420;2023-04-19T04:44:56;22.83;;;20.35;;
48963;SDS011;34776;48.180;16.420;2023-04-19T04:47:22;25.60;;;21.15;;
48963;SDS011;34776;48.180;16.420;2023-04-19T04:49:54;26.08;;;20.67;;
48963;SDS011;34776;48.180;16.420;2023-04-19T04:52:20;24.88;;;21.27;;
48963;SDS011;34776;48.180;16.420;2023-04-19T04:54:45;20.58;;;18.42;;
48963;SDS011;34776;48.180;16.420;2023-04-19T04:57:10;23.30;;;19.20;;
48963;SDS011;34776;48.180;16.420;2023-04-19T04:59:35;21.95;;;19.58;;
48963;SDS011;34776;48.180;16.420;2023-04-19T05:02:01;27.10;;;23.40;;
48963;SDS011;34776;48.180;16.420;2023-04-19T05:04:26;23.83;;;20.88;;
48963;SDS011;34776;48.180;16.420;2023-04-19T05:06:52;22.65;;;19.67;;
48963;SDS011;34776;48.180;16.420;2023-04-19T05:09:17;24.70;;;19.83;;
48963;SDS011;34776;48.180;16.420;2023-04-19T05:11:42;25.00;;;20.95;;
48963;SDS011;34776;48.180;16.420;2023-04-19T05:14:08;25.02;;;20.33;;
48963;SDS011;34776;48.180;16.420;2023-04-19T05:16:33;21.73;;;19.13;;
48963;SDS011;34776;48.180;16.420;2023-04-19T05:18:58;27.67;;;21.50;;
48963;SDS011;34776;48.180;16.420;2023-04-19T05:21:24;22.73;;;20.33;;
48963;SDS011;34776;48.180;16.420;2023-04-19T05:23:50;21.35;;;18.67;;
48963;SDS011;34776;48.180;16.420;2023-04-19T05:26:17;21.90;;;19.45;;
48963;SDS011;34776;48.180;16.420;2023-04-19T05:28:43;23.05;;;19.70;;
48963;SDS011;34776;48.180;16.420;2023-04-19T05:31:08;21.13;;;18.73;;
48963;SDS011;34776;48.180;16.420;2023-04-19T05:33:34;22.05;;;19.15;;
48963;SDS011;34776;48.180;16.420;2023-04-19T05:35:59;24.13;;;19.85;;
48963;SDS011;34776;48.180;16.420;2023-04-19T05:38:25;24.50;;;20.33;;
48963;SDS011;34776;48.180;16.420;2023-04-19T05:40:50;25.20;;;21.33;;
48963;SDS011;34776;48.180;16.420;2023-04-19T05:43:15;24.88;;;20.58;;
48963;SDS011;34776;48.180;16.420;2023-04-19T05:45:41;26.80;;;22.35;;
48963;SDS011;34776;48.180;16.420;2023-04-19T05:48:06;24.67;;;20.40;;
48963;SDS011;34776;48.180;16.420;2023-04-19T05:50:32;27.67;;;20.45;;
48963;SDS011;34776;48.180;16.420;2023-04-19T05:52:58;20.63;;;18.45;;
48963;SDS011;34776;48.180;16.420;2023-04-19T05:55:24;24.60;;;20.45;;
48963;SDS011;34776;48.180;16.420;2023-04-19T05:57:49;20.60;;;18.35;;
48963;SDS011;34776;48.180;16.420;2023-04-19T06:00:15;21.63;;;19.20;;
48963;SDS011;34776;48.180;16.420;2023-04-19T06:02:41;25.73;;;19.75;;
48963;SDS011;34776;48.180;16.420;2023-04-19T06:05:08;22.73;;;19.77;;
48963;SDS011;34776;48.180;16.420;2023-04-19T06:07:33;24.95;;;20.38;;
48963;SDS011;34776;48.180;16.420;2023-04-19T06:09:59;23.48;;;21.08;;
48963;SDS011;34776;48.180;16.420;2023-04-19T06:12:24;21.25;;;18.98;;
48963;SDS011;34776;48.180;16.420;2023-04-19T06:14:50;24.50;;;21.95;;
48963;SDS011;34776;48.180;16.420;2023-04-19T06:17:16;23.45;;;20.95;;
48963;SDS011;34776;48.180;16.420;2023-04-19T06:19:47;23.27;;;19.80;;
48963;SDS011;34776;48.180;16.420;2023-04-19T06:22:12;21.85;;;19.42;;
48963;SDS011;34776;48.180;16.420;2023-04-19T06:24:38;21.23;;;18.55;;
48963;SDS011;34776;48.180;16.420;2023-04-19T06:27:03;24.00;;;21.20;;
48963;SDS011;34776;48.180;16.420;2023-04-19T06:29:28;22.17;;;19.85;;
48963;SDS011;34776;48.180;16.420;2023-04-19T06:31:54;21.60;;;19.23;;
48963;SDS011;34776;48.180;16.420;2023-04-19T06:34:19;24.70;;;21.98;;
48963;SDS011;34776;48.180;16.420;2023-04-19T06:36:45;24.58;;;21.10;;
48963;SDS011;34776;48.180;16.420;2023-04-19T06:39:10;24.45;;;21.77;;
48963;SDS011;34776;48.180;16.420;2023-04-19T06:41:35;25.13;;;21.75;;
48963;SDS011;34776;48.180;16.420;2023-04-19T06:44:01;23.05;;;19.90;;
48963;SDS011;34776;48.180;16.420;2023-04-19T06:46:26;26.15;;;22.88;;
48963;SDS011;34776;48.180;16.420;2023-04-19T06:48:52;24.20;;;21.70;;
48963;SDS011;34776;48.180;16.420;2023-04-19T06:51:18;29.50;;;23.23;;
48963;SDS011;34776;48.180;16.420;2023-04-19T06:53:43;24.38;;;21.67;;
48963;SDS011;34776;48.180;16.420;2023-04-19T06:56:08;28.83;;;23.02;;
48963;SDS011;34776;48.180;16.420;2023-04-19T06:58:35;25.95;;;22.63;;
48963;SDS011;34776;48.180;16.420;2023-04-19T07:01:00;25.05;;;20.58;;
48963;SDS011;34776;48.180;16.420;2023-04-19T07:03:28;25.05;;;22.17;;
48963;SDS011;34776;48.180;16.420;2023-04-19T07:05:54;25.17;;;22.48;;
48963;SDS011;34776;48.180;16.420;2023-04-19T07:08:23;24.38;;;21.13;;
48963;SDS011;34776;48.180;16.420;2023-04-19T07:10:49;23.20;;;20.70;;
48963;SDS011;34776;48.180;16.420;2023-04-19T07:13:14;23.80;;;20.85;;
48963;SDS011;34776;48.180;16.420;2023-04-19T07:15:40;22.25;;;19.67;;
48963;SDS011;34776;48.180;16.420;2023-04-19T07:18:05;23.05;;;20.63;;
48963;SDS011;34776;48.180;16.420;2023-04-19T07:20:34;24.38;;;21.65;;
48963;SDS011;34776;48.180;16.420;2023-04-19T07:22:59;23.73;;;21.23;;
48963;SDS011;34776;48.180;16.420;2023-04-19T07:25:25;34.22;;;22.85;;
48963;SDS011;34776;48.180;16.420;2023-04-19T07:27:51;50.83;;;21.80;;
48963;SDS011;34776;48.180;16.420;2023-04-19T07:30:18;30.27;;;22.45;;
48963;SDS011;34776;48.180;16.420;2023-04-19T07:32:44;32.50;;;22.30;;
48963;SDS011;34776;48.180;16.420;2023-04-19T07:35:10;25.85;;;21.98;;
48963;SDS011;34776;48.180;16.420;2023-04-19T07:37:35;28.10;;;21.98;;
48963;SDS011;34776;48.180;16.420;2023-04-19T07:40:00;22.23;;;19.63;;
48963;SDS011;34776;48.180;16.420;2023-04-19T07:42:26;25.42;;;19.63;;
48963;SDS011;34776;48.180;16.420;2023-04-19T07:44:54;19.17;;;16.95;;
48963;SDS011;34776;48.180;16.420;2023-04-19T07:47:19;21.27;;;17.75;;
48963;SDS011;34776;48.180;16.420;2023-04-19T07:49:44;18.63;;;16.48;;
48963;SDS011;34776;48.180;16.420;2023-04-19T07:52:10;18.50;;;16.55;;
48963;SDS011;34776;48.180;16.420;2023-04-19T07:54:35;20.25;;;15.18;;
48963;SDS011;34776;48.180;16.420;2023-04-19T07:57:03;19.83;;;16.20;;
48963;SDS011;34776;48.180;16.420;2023-04-19T07:59:28;19.55;;;17.20;;
48963;SDS011;34776;48.180;16.420;2023-04-19T08:01:54;17.42;;;15.60;;
48963;SDS011;34776;48.180;16.420;2023-04-19T08:04:19;23.83;;;19.38;;
48963;SDS011;34776;48.180;16.420;2023-04-19T08:06:46;16.30;;;14.43;;
48963;SDS011;34776;48.180;16.420;2023-04-19T08:09:12;17.25;;;14.93;;
48963;SDS011;34776;48.180;16.420;2023-04-19T08:11:37;18.25;;;15.35;;
48963;SDS011;34776;48.180;16.420;2023-04-19T08:14:03;18.10;;;15.93;;
48963;SDS011;34776;48.180;16.420;2023-04-19T08:16:28;15.25;;;13.65;;
48963;SDS011;34776;48.180;16.420;2023-04-19T08:18:54;16.60;;;14.50;;
48963;SDS011;34776;48.180;16.420;2023-04-19T08:21:19;16.40;;;14.70;;
48963;SDS011;34776;48.180;16.420;2023-04-19T08:23:45;18.10;;;15.00;;
48963;SDS011;34776;48.180;16.420;2023-04-19T08:26:11;16.65;;;13.90;;
48963;SDS011;34776;48.180;16.420;2023-04-19T08:28:36;22.23;;;18.50;;
48963;SDS011;34776;48.180;16.420;2023-04-19T08:31:04;16.23;;;14.55;;
48963;SDS011;34776;48.180;16.420;2023-04-19T08:33:30;15.48;;;13.88;;
48963;SDS011;34776;48.180;16.420;2023-04-19T08:35:55;14.85;;;13.40;;
48963;SDS011;34776;48.180;16.420;2023-04-19T08:38:20;16.30;;;13.20;;
48963;SDS011;34776;48.180;16.420;2023-04-19T08:40:46;16.02;;;14.13;;
48963;SDS011;34776;48.180;16.420;2023-04-19T08:43:16;22.17;;;14.18;;
48963;SDS011;34776;48.180;16.420;2023-04-19T08:45:45;15.40;;;13.25;;
48963;SDS011;34776;48.180;16.420;2023-04-19T08:48:11;14.57;;;13.07;;
48963;SDS011;34776;48.180;16.420;2023-04-19T08:50:40;14.68;;;13.18;;
48963;SDS011;34776;48.180;16.420;2023-04-19T08:53:09;19.85;;;14.02;;
48963;SDS011;34776;48.180;16.420;2023-04-19T08:55:39;13.45;;;12.05;;
48963;SDS011;34776;48.180;16.420;2023-04-19T08:58:05;12.95;;;11.60;;
48963;SDS011;34776;48.180;16.420;2023-04-19T09:00:36;12.60;;;11.40;;
48963;SDS011;34776;48.180;16.420;2023-04-19T09:03:03;16.83;;;14.40;;
48963;SDS011;34776;48.180;16.420;2023-04-19T09:05:31;14.18;;;12.38;;
48963;SDS011;34776;48.180;16.420;2023-04-19T09:08:19;16.52;;;13.38;;
48963;SDS011;34776;48.180;16.420;2023-04-19T09:10:55;14.02;;;12.15;;
48963;SDS011;34776;48.180;16.420;2023-04-19T09:13:25;15.23;;;12.80;;
48963;SDS011;34776;48.180;16.420;2023-04-19T09:15:52;15.23;;;11.80;;
48963;SDS011;34776;48.180;16.420;2023-04-19T09:18:18;11.65;;;10.30;;
48963;SDS011;34776;48.180;16.420;2023-04-19T09:20:44;11.70;;;9.57;;
48963;SDS011;34776;48.180;16.420;2023-04-19T09:23:13;10.57;;;9.48;;
48963;SDS011;34776;48.180;16.420;2023-04-19T09:28:31;9.48;;;8.48;;
48963;SDS011;34776;48.180;16.420;2023-04-19T09:30:56;11.60;;;8.35;;
48963;SDS011;34776;48.180;16.420;2023-04-19T09:33:32;9.23;;;7.90;;
48963;SDS011;34776;48.180;16.420;2023-04-19T09:36:00;9.45;;;8.45;;
48963;SDS011;34776;48.180;16.420;2023-04-19T09:38:26;8.50;;;7.60;;
48963;SDS011;34776;48.180;16.420;2023-04-19T09:41:05;9.30;;;8.40;;
48963;SDS011;34776;48.180;16.420;2023-04-19T09:43:32;10.82;;;9.70;;
48963;SDS011;34776;48.180;16.420;2023-04-19T09:45:58;12.40;;;11.15;;
48963;SDS011;34776;48.180;16.420;2023-04-19T09:48:23;13.68;;;12.32;;
48963;SDS011;34776;48.180;16.420;2023-04-19T09:53:24;11.32;;;9.82;;
48963;SDS011;34776;48.180;16.420;2023-04-19T09:55:51;11.27;;;9.50;;
48963;SDS011;34776;48.180;16.420;2023-04-19T09:58:17;10.52;;;9.30;;
48963;SDS011;34776;48.180;16.420;2023-04-19T10:00:44;11.50;;;10.07;;
48963;SDS011;34776;48.180;16.420;2023-04-19T10:03:16;15.60;;;10.20;;
48963;SDS011;34776;48.180;16.420;2023-04-19T10:05:44;10.50;;;9.32;;
48963;SDS011;34776;48.180;16.420;2023-04-19T10:08:11;10.00;;;9.00;;
48963;SDS011;34776;48.180;16.420;2023-04-19T10:10:39;11.07;;;8.82;;
48963;SDS011;34776;48.180;16.420;2023-04-19T10:13:06;11.27;;;8.38;;
48963;SDS011;34776;48.180;16.420;2023-04-19T10:15:35;10.75;;;7.75;;
48963;SDS011;34776;48.180;16.420;2023-04-19T10:18:02;9.02;;;7.35;;
48963;SDS011;34776;48.180;16.420;2023-04-19T10:23:06;7.45;;;6.30;;
48963;SDS011;34776;48.180;16.420;2023-04-19T10:25:35;6.43;;;5.82;;
48963;SDS011;34776;48.180;16.420;2023-04-19T10:28:02;7.05;;;6.20;;
48963;SDS011;34776;48.180;16.420;2023-04-19T10:30:28;9.18;;;6.28;;
48963;SDS011;34776;48.180;16.420;2023-04-19T10:33:02;6.35;;;5.72;;
48963;SDS011;34776;48.180;16.420;2023-04-19T10:35:35;10.00;;;6.07;;
48963;SDS011;34776;48.180;16.420;2023-04-19T10:43:20;8.32;;;7.47;;
48963;SDS011;34776;48.180;16.420;2023-04-19T10:45:49;7.78;;;6.97;;
48963;SDS011;34776;48.180;16.420;2023-04-19T10:51:00;9.07;;;7.03;;
48963;SDS011;34776;48.180;16.420;2023-04-19T10:56:20;11.48;;;7.07;;
48963;SDS011;34776;48.180;16.420;2023-04-19T11:01:42;8.00;;;7.10;;
48963;SDS011;34776;48.180;16.420;2023-04-19T11:07:03;8.27;;;7.47;;
48963;SDS011;34776;48.180;16.420;2023-04-19T11:12:02;8.18;;;7.38;;
48963;SDS011;34776;48.180;16.420;2023-04-19T11:14:33;7.38;;;6.43;;
48963;SDS011;34776;48.180;16.420;2023-04-19T11:17:01;7.85;;;6.70;;
48963;SDS011;34776;48.180;16.420;2023-04-19T11:19:27;7.55;;;5.85;;
48963;SDS011;34776;48.180;16.420;2023-04-19T11:21:52;7.93;;;6.13;;
48963;SDS011;34776;48.180;16.420;2023-04-19T11:24:22;13.35;;;10.20;;
48963;SDS011;34776;48.180;16.420;2023-04-19T11:26:48;10.00;;;8.90;;
48963;SDS011;34776;48.180;16.420;2023-04-19T11:29:14;7.82;;;7.03;;
48963;SDS011;34776;48.180;16.420;2023-04-19T11:31:39;7.55;;;6.30;;
48963;SDS011;34776;48.180;16.420;2023-04-19T11:34:08;6.10;;;5.50;;
48963;SDS011;34776;48.180;16.420;2023-04-19T11:36:33;7.15;;;6.00;;
48963;SDS011;34776;48.180;16.420;2023-04-19T11:39:01;7.20;;;6.50;;
48963;SDS011;34776;48.180;16.420;2023-04-19T11:41:29;7.03;;;6.32;;
48963;SDS011;34776;48.180;16.420;2023-04-19T11:43:54;5.78;;;5.18;;
48963;SDS011;34776;48.180;16.420;2023-04-19T11:46:19;6.70;;;6.00;;
48963;SDS011;34776;48.180;16.420;2023-04-19T11:48:49;9.30;;;7.28;;
48963;SDS011;34776;48.180;16.420;2023-04-19T11:51:18;7.97;;;6.43;;
48963;SDS011;34776;48.180;16.420;2023-04-19T11:53:44;9.80;;;6.35;;
48963;SDS011;34776;48.180;16.420;2023-04-19T11:56:11;6.82;;;6.13;;
48963;SDS011;34776;48.180;16.420;2023-04-19T11:58:37;7.43;;;6.72;;
48963;SDS011;34776;48.180;16.420;2023-04-19T12:01:05;7.57;;;6.78;;
48963;SDS011;34776;48.180;16.420;2023-04-19T12:03:33;9.52;;;7.57;;
48963;SDS011;34776;48.180;16.420;2023-04-19T12:06:00;7.35;;;6.35;;
48963;SDS011;34776;48.180;16.420;2023-04-19T12:08:36;8.45;;;7.20;;
48963;SDS011;34776;48.180;16.420;2023-04-19T12:11:04;8.65;;;7.75;;
48963;SDS011;34776;48.180;16.420;2023-04-19T12:13:30;8.32;;;7.53;;
48963;SDS011;34776;48.180;16.420;2023-04-19T12:15:56;10.35;;;9.30;;
48963;SDS011;34776;48.180;16.420;2023-04-19T12:18:22;11.15;;;8.50;;
48963;SDS011;34776;48.180;16.420;2023-04-19T12:20:48;8.40;;;7.55;;
48963;SDS011;34776;48.180;16.420;2023-04-19T12:23:15;8.63;;;7.80;;
48963;SDS011;34776;48.180;16.420;2023-04-19T12:25:43;8.75;;;7.85;;
48963;SDS011;34776;48.180;16.420;2023-04-19T12:28:10;9.88;;;8.50;;
48963;SDS011;34776;48.180;16.420;2023-04-19T12:30:36;8.70;;;7.80;;
48963;SDS011;34776;48.180;16.420;2023-04-19T12:33:02;9.77;;;8.82;;
48963;SDS011;34776;48.180;16.420;2023-04-19T12:35:28;10.27;;;9.18;;
48963;SDS011;34776;48.180;16.420;2023-04-19T12:37:54;12.98;;;8.43;;
48963;SDS011;34776;48.180;16.420;2023-04-19T12:40:21;10.82;;;9.27;;
48963;SDS011;34776;48.180;16.420;2023-04-19T12:42:47;9.38;;;7.95;;
48963;SDS011;34776;48.180;16.420;2023-04-19T12:45:13;9.75;;;8.75;;
48963;SDS011;34776;48.180;16.420;2023-04-19T12:47:39;9.73;;;8.68;;
48963;SDS011;34776;48.180;16.420;2023-04-19T12:50:05;9.43;;;7.93;;
48963;SDS011;34776;48.180;16.420;2023-04-19T12:52:32;10.10;;;7.40;;
48963;SDS011;34776;48.180;16.420;2023-04-19T12:54:57;8.50;;;7.60;;
48963;SDS011;34776;48.180;16.420;2023-04-19T12:57:23;6.82;;;5.95;;
48963;SDS011;34776;48.180;16.420;2023-04-19T12:59:48;6.90;;;6.13;;
48963;SDS011;34776;48.180;16.420;2023-04-19T13:02:14;7.90;;;6.47;;
48963;SDS011;34776;48.180;16.420;2023-04-19T13:04:39;7.70;;;6.90;;
48963;SDS011;34776;48.180;16.420;2023-04-19T13:07:04;7.47;;;6.65;;
48963;SDS011;34776;48.180;16.420;2023-04-19T13:09:30;8.70;;;6.03;;
48963;SDS011;34776;48.180;16.420;2023-04-19T13:11:55;7.75;;;6.82;;
48963;SDS011;34776;48.180;16.420;2023-04-19T13:14:27;7.13;;;6.13;;
48963;SDS011;34776;48.180;16.420;2023-04-19T13:16:53;8.88;;;7.65;;
48963;SDS011;34776;48.180;16.420;2023-04-19T13:19:18;15.15;;;13.40;;
48963;SDS011;34776;48.180;16.420;2023-04-19T13:21:44;8.27;;;7.20;;
48963;SDS011;34776;48.180;16.420;2023-04-19T13:24:10;7.53;;;6.22;;
48963;SDS011;34776;48.180;16.420;2023-04-19T13:26:35;6.95;;;5.47;;
48963;SDS011;34776;48.180;16.420;2023-04-19T13:29:01;8.63;;;6.00;;
48963;SDS011;34776;48.180;16.420;2023-04-19T13:31:27;6.97;;;6.22;;
48963;SDS011;34776;48.180;16.420;2023-04-19T13:33:52;7.97;;;6.22;;
48963;SDS011;34776;48.180;16.420;2023-04-19T13:36:19;7.82;;;6.30;;
48963;SDS011;34776;48.180;16.420;2023-04-19T13:38:44;7.45;;;6.50;;
48963;SDS011;34776;48.180;16.420;2023-04-19T13:41:10;6.40;;;5.63;;
48963;SDS011;34776;48.180;16.420;2023-04-19T13:43:35;9.02;;;5.10;;
48963;SDS011;34776;48.180;16.420;2023-04-19T13:46:01;8.52;;;6.18;;
48963;SDS011;34776;48.180;16.420;2023-04-19T13:48:26;8.50;;;5.90;;
48963;SDS011;34776;48.180;16.420;2023-04-19T13:50:56;6.15;;;5.55;;
48963;SDS011;34776;48.180;16.420;2023-04-19T13:53:23;8.15;;;5.75;;
48963;SDS011;34776;48.180;16.420;2023-04-19T13:55:52;8.32;;;5.10;;
48963;SDS011;34776;48.180;16.420;2023-04-19T13:58:18;5.68;;;5.05;;
48963;SDS011;34776;48.180;16.420;2023-04-19T14:00:44;7.38;;;4.60;;
48963;SDS011;34776;48.180;16.420;2023-04-19T14:03:09;6.32;;;5.70;;
48963;SDS011;34776;48.180;16.420;2023-04-19T14:05:35;9.32;;;5.75;;
48963;SDS011;34776;48.180;16.420;2023-04-19T14:08:00;5.80;;;5.13;;
48963;SDS011;34776;48.180;16.420;2023-04-19T14:10:26;6.03;;;5.05;;
48963;SDS011;34776;48.180;16.420;2023-04-19T14:12:53;5.10;;;4.60;;
48963;SDS011;34776;48.180;16.420;2023-04-19T14:15:19;6.22;;;4.82;;
48963;SDS011;34776;48.180;16.420;2023-04-19T14:17:45;5.95;;;4.70;;
48963;SDS011;34776;48.180;16.420;2023-04-19T14:20:10;5.75;;;4.35;;
48963;SDS011;34776;48.180;16.420;2023-04-19T14:22:36;7.93;;;4.63;;
48963;SDS011;34776;48.180;16.420;2023-04-19T14:25:02;5.13;;;4.63;;
48963;SDS011;34776;48.180;16.420;2023-04-19T14:27:28;5.45;;;4.22;;
48963;SDS011;34776;48.180;16.420;2023-04-19T14:29:53;10.07;;;4.40;;
48963;SDS011;34776;48.180;16.420;2023-04-19T14:32:19;5.13;;;4.43;;
48963;SDS011;34776;48.180;16.420;2023-04-19T14:34:44;7.22;;;6.15;;
48963;SDS011;34776;48.180;16.420;2023-04-19T14:37:10;13.10;;;11.38;;